To NAV CANADA Home Page Login to a new session Search on AWWS site Feedback and Comments Disclaimer Vers la page française équivalente Tips FAQ What's new on the site To the Forecasts and Observations / NOTAM section To "File a Flight Plan" website Publications and other links Update of the User's profile FIC Telephone Numbers My Weather Data Folder Route Weather Data Regional Weather Data Local Weather Data To the Forecasts and Observations / NOTAM section
Request Generated 05/03/2016 at 08:45:52 UTC . Weather information available at that time is displayed.

METAR/TAF

FORT ST. JOHN/BC    

METAR CYXJ 030800Z 09003KT 15SM SKC 18/M02 A2987 RMK SLP117 DENSITY
ALT 3100FT=
METAR CYXJ 030700Z 15002KT 15SM SKC 18/M03 A2987 RMK SLP118 DENSITY
ALT 3100FT=
METAR CYXJ 030600Z 12003KT 15SM SKC 16/M01 A2987 RMK SLP121 DENSITY
ALT 2900FT=

TAF CYXJ 030638Z 0307/0319 VRB03KT P6SM FEW220
BECMG 0317/0319 22010KT
RMK NXT FCST BY 031300Z=
Your time UTC time
Weather data provided by Environment Canada and NAV CANADA